Time;durP1;ratioP1;P1;durP2;ratioP2;P2;SDS_P1;SDS_P2;PMS_P1;PMS_P2;Temp;Humidity;BMP_temperature;BMP_pressure;BME280_temperature;BME280_humidity;BME280_pressure;Samples;Min_cycle;Max_cycle;Signal;HPM_P1;HPM_P2
2023/05/02 00:02:02;;;;;;;17.33;6.43;;;12.20;99.90;;;;;;5092029;28;20051;-69
2023/05/02 00:04:27;;;;;;;13.80;7.57;;;12.20;99.90;;;;;;5079547;28;20048;-69
2023/05/02 00:06:53;;;;;;;16.33;6.97;;;12.10;99.90;;;;;;5079546;28;20044;-69
2023/05/02 00:09:19;;;;;;;11.88;5.60;;;12.00;99.90;;;;;;5095330;28;20037;-70
2023/05/02 00:11:45;;;;;;;12.60;5.45;;;11.90;99.90;;;;;;5079466;28;20040;-70
2023/05/02 00:14:11;;;;;;;14.70;5.20;;;12.10;99.90;;;;;;5078098;28;20036;-69
2023/05/02 00:16:36;;;;;;;13.40;5.72;;;12.00;99.90;;;;;;5078395;28;20128;-70
2023/05/02 00:19:02;;;;;;;14.75;5.03;;;11.90;99.90;;;;;;5078012;28;20036;-70
2023/05/02 00:21:28;;;;;;;14.85;5.00;;;12.00;99.90;;;;;;5079185;28;20032;-69
2023/05/02 00:23:55;;;;;;;12.32;5.25;;;11.90;99.90;;;;;;5079257;28;20036;-70
2023/05/02 00:26:22;;;;;;;11.57;4.45;;;11.90;99.90;;;;;;5078893;28;20040;-69
2023/05/02 00:28:48;;;;;;;15.57;4.88;;;12.00;99.90;;;;;;5078083;28;20048;-69
2023/05/02 00:31:14;;;;;;;12.23;4.75;;;12.00;99.90;;;;;;5077724;28;20048;-69
2023/05/02 00:33:39;;;;;;;14.02;4.72;;;12.10;99.90;;;;;;5077981;28;20070;-69
2023/05/02 00:36:16;;;;;;;11.70;4.45;;;12.10;99.90;;;;;;5077713;28;20048;-69
2023/05/02 00:38:42;;;;;;;14.48;4.15;;;12.30;99.90;;;;;;5078545;28;20509;-70
2023/05/02 00:41:08;;;;;;;15.02;4.10;;;12.30;99.90;;;;;;5078903;28;20052;-70
2023/05/02 00:43:34;;;;;;;9.13;3.80;;;12.30;99.90;;;;;;5078504;28;20097;-70
2023/05/02 00:45:59;;;;;;;13.63;3.72;;;12.50;99.90;;;;;;5078806;28;20119;-70
2023/05/02 00:48:25;;;;;;;9.07;3.50;;;12.40;99.90;;;;;;5078757;28;20325;-70
2023/05/02 00:50:51;;;;;;;8.13;3.03;;;12.50;99.90;;;;;;5078649;28;20048;-70
2023/05/02 00:53:17;;;;;;;9.60;3.67;;;12.50;99.90;;;;;;5078718;28;20032;-69
2023/05/02 00:55:43;;;;;;;13.40;3.33;;;12.50;99.90;;;;;;5077490;28;20071;-70
2023/05/02 00:58:15;;;;;;;14.57;3.70;;;12.50;99.90;;;;;;5077660;28;20098;-70
2023/05/02 01:01:14;;;;;;;13.45;4.10;;;12.40;99.90;;;;;;5077264;28;20044;-70
2023/05/02 01:04:03;;;;;;;12.00;3.10;;;12.50;99.90;;;;;;5078545;28;20044;-70
2023/05/02 01:06:41;;;;;;;7.55;2.95;;;12.40;99.90;;;;;;5078240;28;20045;-70
2023/05/02 01:09:34;;;;;;;6.38;3.13;;;12.40;99.90;;;;;;5078069;28;20153;-70
2023/05/02 01:12:30;;;;;;;12.07;3.65;;;12.40;99.90;;;;;;5078935;28;20089;-70
2023/05/02 01:14:58;;;;;;;9.95;3.10;;;12.60;99.90;;;;;;5059132;28;20037;-70
2023/05/02 01:17:27;;;;;;;9.07;3.55;;;12.70;99.90;;;;;;5077892;28;20089;-69
2023/05/02 01:19:57;;;;;;;9.73;3.30;;;12.60;99.90;;;;;;5078178;28;20036;-70
2023/05/02 01:22:30;;;;;;;7.35;2.90;;;12.60;99.90;;;;;;5078108;28;20083;-70
2023/05/02 01:25:09;;;;;;;10.10;3.55;;;12.50;99.90;;;;;;5077448;28;20311;-70
2023/05/02 01:28:08;;;;;;;11.50;3.38;;;12.50;99.90;;;;;;5078055;28;20102;-70
2023/05/02 01:30:37;;;;;;;9.55;3.25;;;12.20;99.90;;;;;;5033883;28;20109;-69
2023/05/02 01:33:04;;;;;;;13.25;3.83;;;12.00;99.90;;;;;;5077911;28;20041;-70
2023/05/02 01:35:32;;;;;;;12.98;3.85;;;11.90;99.90;;;;;;5077852;28;20028;-70
2023/05/02 01:38:00;;;;;;;15.35;4.32;;;12.00;99.90;;;;;;5077783;28;20045;-70
2023/05/02 01:40:26;;;;;;;22.23;4.90;;;11.80;99.90;;;;;;5076262;28;20048;-69
2023/05/02 01:42:53;;;;;;;17.70;4.70;;;11.90;99.90;;;;;;5077464;28;20436;-70
2023/05/02 01:45:21;;;;;;;19.67;4.30;;;12.00;99.90;;;;;;5076928;28;20051;-70
2023/05/02 01:47:47;;;;;;;21.33;3.67;;;11.80;99.90;;;;;;5093389;28;20040;-70
2023/05/02 01:50:17;;;;;;;14.45;3.85;;;11.60;99.90;;;;;;5077484;28;20052;-70
2023/05/02 01:52:46;;;;;;;21.13;3.67;;;11.50;99.90;;;;;;5076253;28;20083;-70
2023/05/02 01:55:14;;;;;;;21.90;3.60;;;11.50;99.90;;;;;;5077167;28;20044;-70
2023/05/02 01:57:42;;;;;;;21.15;3.92;;;11.30;99.90;;;;;;5076088;28;20123;-70
2023/05/02 02:00:10;;;;;;;15.70;3.95;;;11.30;99.90;;;;;;5077012;28;20448;-70
2023/05/02 02:02:38;;;;;;;21.85;4.00;;;11.30;99.90;;;;;;5076065;28;20036;-70
2023/05/02 02:05:06;;;;;;;21.70;4.20;;;11.30;99.90;;;;;;5075970;28;20076;-70
2023/05/02 02:07:32;;;;;;;18.33;3.78;;;11.40;99.90;;;;;;5077244;28;20040;-69
2023/05/02 02:09:58;;;;;;;23.02;4.10;;;11.30;99.90;;;;;;5077156;28;20310;-70
2023/05/02 02:12:27;;;;;;;20.60;3.95;;;11.10;99.90;;;;;;5076173;28;20075;-70
2023/05/02 02:15:01;;;;;;;24.13;4.55;;;11.10;99.90;;;;;;5077176;28;20033;-70
2023/05/02 02:17:38;;;;;;;27.55;4.40;;;11.20;99.90;;;;;;5077169;28;20040;-70
2023/05/02 02:20:07;;;;;;;26.00;4.88;;;11.30;99.90;;;;;;5076803;28;20098;-69
2023/05/02 02:22:37;;;;;;;28.55;6.90;;;11.40;99.90;;;;;;5075689;28;20048;-70
2023/05/02 02:25:08;;;;;;;23.02;5.55;;;11.40;99.90;;;;;;5076297;28;20048;-70
2023/05/02 02:27:36;;;;;;;20.98;5.10;;;11.20;99.90;;;;;;5076992;28;20372;-70
2023/05/02 02:30:03;;;;;;;26.45;5.35;;;11.10;99.90;;;;;;5076812;28;20171;-70
2023/05/02 02:32:28;;;;;;;23.38;5.63;;;10.90;99.90;;;;;;5075800;28;20326;-70
2023/05/02 02:34:54;;;;;;;22.58;4.85;;;10.80;99.90;;;;;;5076872;28;20090;-70
2023/05/02 02:37:29;;;;;;;26.83;4.78;;;10.70;99.90;;;;;;5076844;28;20036;-70
2023/05/02 02:40:04;;;;;;;26.30;4.40;;;10.60;99.90;;;;;;5076581;28;20056;-70
2023/05/02 02:43:13;;;;;;;37.83;5.82;;;10.50;99.90;;;;;;5076560;28;20051;-70
2023/05/02 02:45:56;;;;;;;26.15;4.40;;;10.30;99.90;;;;;;5075587;28;20123;-69
2023/05/02 02:48:30;;;;;;;26.40;4.63;;;10.30;99.90;;;;;;5076455;28;20414;-69
2023/05/02 02:51:11;;;;;;;21.63;3.95;;;10.30;99.90;;;;;;5077176;28;20418;-69
2023/05/02 02:54:01;;;;;;;25.02;5.07;;;10.30;99.90;;;;;;5076728;28;20097;-69
2023/05/02 02:56:43;;;;;;;27.08;4.65;;;10.20;99.90;;;;;;5076361;28;20047;-69
2023/05/02 02:59:23;;;;;;;27.90;4.78;;;10.10;99.90;;;;;;5076367;28;20041;-69
2023/05/02 03:02:01;;;;;;;29.45;4.50;;;10.10;99.90;;;;;;5076655;28;20036;-69
2023/05/02 03:04:40;;;;;;;18.67;3.50;;;10.10;99.90;;;;;;5076660;28;20040;-69
2023/05/02 03:07:07;;;;;;;30.65;4.35;;;10.10;99.90;;;;;;5076302;28;20414;-69
2023/05/02 03:09:43;;;;;;;24.02;4.88;;;10.30;99.90;;;;;;5076491;28;20033;-69
2023/05/02 03:12:09;;;;;;;19.80;3.47;;;10.30;99.90;;;;;;5076217;28;20441;-69
2023/05/02 03:14:36;;;;;;;18.33;4.32;;;10.40;99.90;;;;;;5075219;28;20135;-69
2023/05/02 03:17:02;;;;;;;22.50;3.80;;;10.30;99.90;;;;;;5076137;28;20354;-69
2023/05/02 03:19:28;;;;;;;20.98;3.75;;;10.20;99.90;;;;;;5094235;28;20516;-70
2023/05/02 03:21:54;;;;;;;28.65;4.47;;;10.20;99.90;;;;;;5096384;28;20101;-70
2023/05/02 03:24:20;;;;;;;18.48;3.80;;;10.10;99.90;;;;;;5095875;28;20111;-69
2023/05/02 03:26:46;;;;;;;17.73;4.22;;;10.20;99.90;;;;;;5096235;28;20031;-69
2023/05/02 03:29:12;;;;;;;19.17;2.97;;;10.30;99.90;;;;;;5096466;28;20042;-69
2023/05/02 03:31:38;;;;;;;14.63;3.17;;;10.40;99.90;;;;;;5095461;28;20315;-70
2023/05/02 03:34:04;;;;;;;9.73;2.33;;;10.30;99.90;;;;;;5096533;28;20039;-70
2023/05/02 03:36:29;;;;;;;17.42;2.72;;;10.20;99.90;;;;;;5096505;28;20433;-69
2023/05/02 03:38:55;;;;;;;16.35;2.38;;;10.10;99.90;;;;;;5098214;28;20430;-69
2023/05/02 03:41:21;;;;;;;12.35;2.25;;;10.20;99.90;;;;;;5100332;28;20044;-69
2023/05/02 03:43:47;;;;;;;17.67;2.83;;;10.10;99.90;;;;;;5100027;28;20456;-69
2023/05/02 03:46:13;;;;;;;17.15;3.03;;;10.00;99.90;;;;;;5100253;28;20040;-69
2023/05/02 03:48:38;;;;;;;14.30;2.22;;;9.90;99.90;;;;;;5100791;28;20051;-70
2023/05/02 03:51:08;;;;;;;15.38;2.50;;;9.90;99.90;;;;;;5098730;28;20323;-69
2023/05/02 03:53:35;;;;;;;15.48;3.20;;;10.00;99.90;;;;;;5099061;28;20309;-69
2023/05/02 03:56:00;;;;;;;15.57;2.15;;;10.10;99.90;;;;;;5098896;28;20060;-70
2023/05/02 03:58:27;;;;;;;17.00;3.22;;;10.10;99.90;;;;;;5100157;28;20047;-70
2023/05/02 04:00:53;;;;;;;12.85;2.55;;;10.00;99.90;;;;;;5098615;28;20044;-70
2023/05/02 04:03:19;;;;;;;20.17;2.42;;;10.10;99.90;;;;;;5098579;28;20044;-69
2023/05/02 04:05:46;;;;;;;11.20;2.00;;;10.10;99.90;;;;;;5099894;28;20081;-70
2023/05/02 04:08:12;;;;;;;17.27;2.30;;;10.10;99.90;;;;;;5098790;28;20036;-69
2023/05/02 04:10:38;;;;;;;12.95;2.40;;;10.10;99.90;;;;;;5099702;28;20044;-69
2023/05/02 04:13:04;;;;;;;16.13;2.17;;;10.00;99.90;;;;;;5099708;28;20059;-70
2023/05/02 04:15:33;;;;;;;13.60;1.85;;;10.10;99.90;;;;;;5095762;28;20285;-70
2023/05/02 04:17:58;;;;;;;8.18;1.73;;;10.00;99.90;;;;;;5076312;28;20098;-71
2023/05/02 04:20:25;;;;;;;9.88;2.30;;;9.90;99.90;;;;;;5078487;28;20045;-69
2023/05/02 04:22:51;;;;;;;12.90;3.15;;;9.80;99.90;;;;;;5079243;28;20044;-70
2023/05/02 04:25:16;;;;;;;9.23;1.67;;;9.90;99.90;;;;;;5078861;28;20337;-69
2023/05/02 04:27:42;;;;;;;14.48;2.25;;;9.80;99.90;;;;;;5079211;28;20040;-69
2023/05/02 04:30:09;;;;;;;11.00;2.15;;;10.00;99.90;;;;;;5079015;28;20080;-69
2023/05/02 04:32:35;;;;;;;11.60;2.15;;;10.00;99.90;;;;;;5079153;28;20380;-70
2023/05/02 04:35:01;;;;;;;9.07;1.42;;;10.10;99.90;;;;;;5078034;28;20040;-69
2023/05/02 04:37:27;;;;;;;9.25;1.50;;;10.00;99.90;;;;;;5079034;28;20124;-69
2023/05/02 04:39:52;;;;;;;10.07;1.67;;;9.80;99.90;;;;;;5078645;28;20092;-69
2023/05/02 04:42:18;;;;;;;7.43;1.80;;;9.90;99.90;;;;;;5079276;28;20307;-69
2023/05/02 04:44:44;;;;;;;7.22;1.73;;;9.90;99.90;;;;;;5077817;28;20051;-70
2023/05/02 04:47:09;;;;;;;8.48;1.55;;;9.90;99.90;;;;;;5078507;28;20072;-69
2023/05/02 04:49:35;;;;;;;15.60;2.13;;;10.00;99.90;;;;;;5078459;28;20123;-69
2023/05/02 04:52:01;;;;;;;12.38;1.38;;;9.80;99.90;;;;;;5078799;28;20325;-70
2023/05/02 04:54:27;;;;;;;7.13;1.50;;;9.80;99.90;;;;;;5079214;28;20037;-69
2023/05/02 04:56:52;;;;;;;10.15;1.63;;;9.70;99.90;;;;;;5078370;28;20164;-69
2023/05/02 04:59:18;;;;;;;7.15;1.50;;;9.70;99.90;;;;;;5078585;28;20047;-70
2023/05/02 05:01:44;;;;;;;6.72;1.60;;;9.90;99.90;;;;;;5078521;28;20039;-69
2023/05/02 05:04:10;;;;;;;15.90;2.22;;;9.90;99.90;;;;;;5078486;28;20041;-70
2023/05/02 05:06:35;;;;;;;12.70;1.77;;;10.00;99.90;;;;;;5094258;28;20047;-69
2023/05/02 05:09:02;;;;;;;11.65;1.90;;;10.10;99.90;;;;;;5078405;28;20047;-69
2023/05/02 05:11:28;;;;;;;7.35;1.85;;;10.10;99.90;;;;;;5078271;28;20091;-70
2023/05/02 05:13:54;;;;;;;16.25;2.90;;;10.20;99.90;;;;;;5094109;28;20375;-69
2023/05/02 05:16:19;;;;;;;6.57;1.70;;;10.20;99.90;;;;;;5078244;28;20449;-69
2023/05/02 05:18:46;;;;;;;19.90;2.70;;;10.10;99.90;;;;;;5078136;28;20040;-70
2023/05/02 05:21:11;;;;;;;18.70;2.53;;;10.00;99.90;;;;;;5087230;28;20051;-70
2023/05/02 05:23:37;;;;;;;17.90;2.40;;;9.90;99.90;;;;;;5089879;28;20044;-70
2023/05/02 05:26:15;;;;;;;12.48;2.72;;;9.80;99.90;;;;;;5077753;28;20044;-70
2023/05/02 05:28:41;;;;;;;8.68;2.15;;;9.70;99.90;;;;;;5108930;28;20334;-70
2023/05/02 05:31:08;;;;;;;10.73;2.05;;;9.90;99.90;;;;;;5098171;28;20047;-70
2023/05/02 05:33:37;;;;;;;16.25;3.03;;;10.00;99.90;;;;;;5098163;28;20372;-70
2023/05/02 05:36:07;;;;;;;15.82;2.92;;;10.20;99.90;;;;;;5097210;28;20040;-70
2023/05/02 05:38:33;;;;;;;14.68;2.53;;;10.30;99.90;;;;;;5096868;28;20062;-70
2023/05/02 05:41:00;;;;;;;16.95;2.67;;;10.40;99.90;;;;;;5097587;28;20055;-70
2023/05/02 05:43:26;;;;;;;13.32;2.40;;;10.40;99.90;;;;;;5097513;28;20044;-70
2023/05/02 05:45:53;;;;;;;13.23;2.45;;;10.40;99.90;;;;;;5098168;28;20082;-70
2023/05/02 05:48:19;;;;;;;9.02;1.98;;;10.30;99.90;;;;;;5097875;28;20032;-70
2023/05/02 05:50:45;;;;;;;14.63;2.42;;;10.00;99.90;;;;;;5097478;28;20128;-70
2023/05/02 05:53:11;;;;;;;17.17;2.50;;;9.90;99.90;;;;;;5097802;28;20115;-70
2023/05/02 05:55:37;;;;;;;19.02;2.75;;;10.00;99.90;;;;;;5097427;28;20043;-70
2023/05/02 05:58:04;;;;;;;11.30;2.22;;;10.00;99.90;;;;;;5097385;28;20044;-70
2023/05/02 06:00:30;;;;;;;14.38;2.72;;;10.10;99.90;;;;;;5097044;28;20032;-70
2023/05/02 06:02:55;;;;;;;14.73;2.60;;;10.00;99.90;;;;;;5097697;28;20441;-70
2023/05/02 06:05:21;;;;;;;12.20;2.58;;;10.00;99.90;;;;;;5097299;28;20042;-70
2023/05/02 06:07:47;;;;;;;11.70;2.33;;;10.10;99.90;;;;;;5096233;28;20119;-70
2023/05/02 06:10:12;;;;;;;13.57;2.70;;;10.10;99.90;;;;;;5097394;28;20090;-70
2023/05/02 06:12:38;;;;;;;17.52;2.72;;;10.30;99.90;;;;;;5097132;28;20035;-70
2023/05/02 06:15:04;;;;;;;10.65;2.42;;;10.40;99.90;;;;;;5097439;28;20028;-70
2023/05/02 06:17:30;;;;;;;9.88;2.50;;;10.30;99.90;;;;;;5097397;28;20043;-70
2023/05/02 06:19:56;;;;;;;8.80;2.33;;;10.50;99.90;;;;;;5097368;28;20338;-70
2023/05/02 06:22:21;;;;;;;14.77;2.70;;;10.40;99.90;;;;;;5097257;28;20185;-70
2023/05/02 06:24:47;;;;;;;9.57;2.05;;;10.40;99.90;;;;;;5096274;28;20217;-70
2023/05/02 06:27:13;;;;;;;12.77;2.40;;;10.50;99.90;;;;;;5096867;28;20040;-70
2023/05/02 06:29:38;;;;;;;13.25;2.35;;;10.40;99.90;;;;;;5097165;28;20051;-70
2023/05/02 06:32:05;;;;;;;17.67;3.08;;;10.50;99.90;;;;;;5097139;28;20047;-70
2023/05/02 06:34:32;;;;;;;14.52;2.53;;;10.30;99.90;;;;;;5097195;28;20040;-70
2023/05/02 06:36:57;;;;;;;18.00;3.00;;;10.20;99.90;;;;;;5097162;28;20209;-70
2023/05/02 06:39:23;;;;;;;12.98;2.72;;;10.20;99.90;;;;;;5112708;28;20433;-70
2023/05/02 06:41:49;;;;;;;13.93;2.28;;;10.10;99.90;;;;;;5095706;28;20074;-70
2023/05/02 06:44:15;;;;;;;17.65;3.08;;;10.10;99.90;;;;;;5112666;28;20368;-70
2023/05/02 06:46:41;;;;;;;11.95;2.35;;;10.10;99.90;;;;;;5096701;28;20078;-70
2023/05/02 06:49:06;;;;;;;10.30;2.40;;;10.20;99.90;;;;;;5097039;28;20078;-70
2023/05/02 06:51:32;;;;;;;13.48;2.40;;;10.10;99.90;;;;;;5112640;28;20105;-70
2023/05/02 06:53:58;;;;;;;9.23;2.25;;;10.30;99.90;;;;;;5096893;28;20040;-70
2023/05/02 06:56:24;;;;;;;13.30;2.67;;;10.40;99.90;;;;;;5095288;28;20113;-70
2023/05/02 06:58:50;;;;;;;11.02;2.30;;;10.50;99.90;;;;;;5096907;28;20051;-70
2023/05/02 07:01:17;;;;;;;13.48;2.45;;;10.60;99.90;;;;;;5095630;28;20077;-70
2023/05/02 07:03:42;;;;;;;10.48;2.50;;;10.70;99.90;;;;;;5095455;28;20333;-70
2023/05/02 07:06:08;;;;;;;8.32;2.15;;;10.80;99.90;;;;;;5096789;28;20044;-70
2023/05/02 07:08:34;;;;;;;12.00;2.20;;;10.90;99.90;;;;;;5095715;28;20129;-70
2023/05/02 07:11:01;;;;;;;15.15;2.35;;;10.90;99.90;;;;;;5096627;28;20048;-70
2023/05/02 07:13:27;;;;;;;11.25;2.00;;;10.80;99.90;;;;;;5116616;28;20040;-70
2023/05/02 07:15:53;;;;;;;14.48;3.20;;;10.70;99.90;;;;;;5099495;28;20047;-69
2023/05/02 07:18:20;;;;;;;11.32;2.22;;;10.80;99.90;;;;;;5100754;28;20119;-69
2023/05/02 07:20:45;;;;;;;10.95;2.42;;;10.90;99.90;;;;;;5100824;28;20071;-68
2023/05/02 07:23:11;;;;;;;15.93;2.72;;;11.10;99.90;;;;;;5100635;28;20082;-67
2023/05/02 07:25:38;;;;;;;11.27;2.15;;;10.90;99.90;;;;;;5100250;28;20039;-67
2023/05/02 07:28:04;;;;;;;13.88;2.17;;;11.00;99.90;;;;;;5100343;28;20039;-68
2023/05/02 07:30:30;;;;;;;10.30;2.08;;;10.90;99.90;;;;;;5099199;28;20123;-68
2023/05/02 07:32:56;;;;;;;12.95;2.10;;;10.90;99.90;;;;;;5100551;28;20119;-67
2023/05/02 07:35:21;;;;;;;11.40;2.17;;;10.90;99.90;;;;;;5100530;28;20514;-67
2023/05/02 07:37:47;;;;;;;9.88;2.38;;;10.80;99.90;;;;;;5100450;28;20039;-67
2023/05/02 07:40:13;;;;;;;10.32;2.03;;;10.80;99.90;;;;;;5099956;28;20117;-68
2023/05/02 07:42:40;;;;;;;10.30;2.30;;;10.80;99.90;;;;;;5100398;28;20044;-71
2023/05/02 07:45:08;;;;;;;13.82;2.22;;;10.80;99.90;;;;;;5099990;28;20048;-68
2023/05/02 07:47:34;;;;;;;11.05;3.00;;;10.90;99.90;;;;;;5100237;28;20115;-67
2023/05/02 07:49:59;;;;;;;13.50;2.45;;;10.90;99.90;;;;;;5100099;28;20185;-67
2023/05/02 07:52:25;;;;;;;9.57;2.50;;;11.00;99.90;;;;;;5115878;28;20523;-68
2023/05/02 07:54:51;;;;;;;10.70;2.05;;;10.80;99.90;;;;;;5099792;28;20039;-67
2023/05/02 07:57:17;;;;;;;9.18;1.70;;;10.70;99.90;;;;;;5099636;28;20039;-68
2023/05/02 07:59:44;;;;;;;8.63;1.50;;;10.70;99.90;;;;;;5100011;28;20036;-67
2023/05/02 08:02:11;;;;;;;10.10;1.77;;;10.60;99.90;;;;;;5098639;28;20079;-68
2023/05/02 08:04:37;;;;;;;8.05;1.52;;;10.60;99.90;;;;;;5099676;28;20072;-67
2023/05/02 08:07:03;;;;;;;9.35;1.63;;;10.60;99.90;;;;;;5099934;28;20498;-67
2023/05/02 08:09:28;;;;;;;7.90;1.60;;;10.80;99.90;;;;;;5099688;28;20034;-68
2023/05/02 08:11:54;;;;;;;9.50;1.80;;;10.90;99.90;;;;;;5098827;28;20039;-67
2023/05/02 08:14:20;;;;;;;8.52;1.70;;;11.10;99.90;;;;;;5098462;28;20032;-68
2023/05/02 08:16:46;;;;;;;9.05;1.65;;;11.40;99.90;;;;;;5099729;28;20436;-67
2023/05/02 08:19:11;;;;;;;7.97;1.40;;;11.50;99.90;;;;;;5099763;28;20414;-67
2023/05/02 08:21:37;;;;;;;12.38;1.30;;;11.40;99.90;;;;;;5099574;28;20039;-67
2023/05/02 08:24:03;;;;;;;7.32;1.20;;;11.40;99.90;;;;;;5098522;28;20036;-67
2023/05/02 08:26:28;;;;;;;8.65;1.40;;;11.30;99.90;;;;;;5099121;28;20032;-67
2023/05/02 08:28:54;;;;;;;4.15;1.05;;;11.30;99.90;;;;;;5099473;28;20068;-67
2023/05/02 08:31:20;;;;;;;7.07;1.15;;;11.20;99.90;;;;;;5099066;28;20040;-69
2023/05/02 08:33:46;;;;;;;5.22;1.33;;;11.20;99.90;;;;;;5099065;28;20040;-67
2023/05/02 08:36:13;;;;;;;9.20;1.63;;;11.10;99.90;;;;;;5099736;28;20049;-68
2023/05/02 08:38:40;;;;;;;5.65;0.98;;;11.00;99.90;;;;;;5098186;28;20421;-68
2023/05/02 08:41:19;;;;;;;7.65;1.23;;;10.90;99.90;;;;;;5098866;28;20060;-68
2023/05/02 08:43:47;;;;;;;3.92;1.15;;;11.00;99.90;;;;;;5099110;28;20044;-68
2023/05/02 08:46:15;;;;;;;3.95;1.05;;;11.10;99.90;;;;;;5114867;28;20497;-68
2023/05/02 08:48:42;;;;;;;2.75;0.75;;;11.20;99.90;;;;;;5099129;28;20096;-69
2023/05/02 08:51:13;;;;;;;2.92;0.80;;;11.10;99.90;;;;;;5098982;28;20048;-70
2023/05/02 08:53:40;;;;;;;4.35;1.45;;;11.10;99.90;;;;;;5099017;28;20044;-71
2023/05/02 08:56:07;;;;;;;8.10;0.80;;;11.30;99.90;;;;;;5098608;28;20068;-70
2023/05/02 08:58:36;;;;;;;5.18;0.75;;;11.30;99.90;;;;;;5099007;28;20054;-70
2023/05/02 09:01:08;;;;;;;7.55;1.10;;;11.50;99.90;;;;;;5098871;28;20118;-70
2023/05/02 09:03:35;;;;;;;6.35;1.00;;;11.70;99.90;;;;;;5098553;28;20097;-70
2023/05/02 09:06:03;;;;;;;3.35;0.80;;;11.70;99.90;;;;;;5097747;28;20093;-70
2023/05/02 09:08:29;;;;;;;4.45;0.88;;;11.90;99.90;;;;;;5098650;28;20177;-70
2023/05/02 09:10:55;;;;;;;4.50;0.93;;;12.20;99.90;;;;;;5098616;28;20464;-69
2023/05/02 09:13:37;;;;;;;4.30;1.27;;;12.40;99.90;;;;;;5097568;28;20039;-70
2023/05/02 09:16:14;;;;;;;5.35;0.80;;;12.40;99.90;;;;;;5098521;28;20043;-69
2023/05/02 09:18:45;;;;;;;5.57;0.95;;;12.40;99.90;;;;;;5098247;28;20413;-70
2023/05/02 09:21:13;;;;;;;7.20;1.10;;;12.50;99.90;;;;;;5098215;28;20490;-70
2023/05/02 09:23:44;;;;;;;4.60;1.10;;;12.60;99.90;;;;;;5098370;28;20071;-70
2023/05/02 09:26:11;;;;;;;8.48;1.23;;;12.50;99.90;;;;;;5097770;28;20036;-69
2023/05/02 09:28:42;;;;;;;5.25;0.82;;;11.90;99.90;;;;;;5098057;28;20119;-70
2023/05/02 09:31:16;;;;;;;5.95;1.10;;;11.60;99.90;;;;;;5092391;28;20266;-71
2023/05/02 09:33:42;;;;;;;8.35;1.15;;;11.50;99.90;;;;;;5087410;28;20040;-69
2023/05/02 09:36:14;;;;;;;6.10;1.15;;;11.50;99.90;;;;;;5076412;28;20422;-69
2023/05/02 09:38:41;;;;;;;6.97;1.10;;;11.60;99.90;;;;;;5083660;28;20039;-77
2023/05/02 09:41:08;;;;;;;7.18;1.02;;;11.20;99.90;;;;;;5085998;28;20372;-68
2023/05/02 09:43:34;;;;;;;6.00;1.15;;;11.10;99.90;;;;;;5097793;28;20043;-68
2023/05/02 09:46:05;;;;;;;10.55;0.90;;;11.00;99.90;;;;;;5085225;28;20043;-69
2023/05/02 09:48:52;;;;;;;5.72;1.10;;;11.10;99.90;;;;;;5092559;28;20111;-68
2023/05/02 09:51:19;;;;;;;8.18;1.30;;;11.10;99.90;;;;;;5076729;28;20099;-69
2023/05/02 09:53:45;;;;;;;5.00;1.10;;;11.10;99.90;;;;;;5059537;28;20051;-73
2023/05/02 09:56:18;;;;;;;5.03;1.00;;;11.20;99.90;;;;;;5125316;27;20104;-69
2023/05/02 09:58:44;;;;;;;4.57;1.05;;;11.40;99.90;;;;;;5093921;28;20127;-68
2023/05/02 10:01:17;;;;;;;3.50;0.70;;;11.60;99.90;;;;;;5094147;28;20071;-71
2023/05/02 10:03:47;;;;;;;4.43;0.90;;;11.70;99.90;;;;;;5088872;28;20045;-70
2023/05/02 10:06:16;;;;;;;6.75;1.00;;;12.10;99.90;;;;;;5073655;28;20147;-70
2023/05/02 10:08:44;;;;;;;3.38;0.60;;;12.40;99.90;;;;;;5073734;28;20098;-70
2023/05/02 10:11:12;;;;;;;6.50;1.38;;;12.30;99.90;;;;;;5072999;28;20334;-70
2023/05/02 10:13:39;;;;;;;6.53;0.75;;;12.10;99.90;;;;;;5077730;28;20040;-68
2023/05/02 10:16:06;;;;;;;4.60;0.73;;;12.00;99.90;;;;;;5078722;28;20091;-70
2023/05/02 10:18:46;;;;;;;4.30;0.90;;;12.00;99.90;;;;;;5088702;28;20036;-68
2023/05/02 10:21:15;;;;;;;5.18;0.77;;;12.10;99.90;;;;;;5079625;28;20041;-67
2023/05/02 10:23:45;;;;;;;8.50;1.40;;;12.10;99.90;;;;;;5093710;28;20098;-67
2023/05/02 10:26:15;;;;;;;4.18;0.80;;;11.90;99.90;;;;;;5093405;28;20079;-67
2023/05/02 10:28:42;;;;;;;4.57;0.57;;;11.90;99.90;;;;;;5093647;28;20044;-67
2023/05/02 10:31:12;;;;;;;2.95;0.90;;;12.10;99.90;;;;;;5093628;28;20044;-68
2023/05/02 10:33:39;;;;;;;3.83;0.90;;;12.10;99.90;;;;;;5085185;28;20041;-70
2023/05/02 10:36:07;;;;;;;7.80;0.55;;;12.40;99.90;;;;;;5073022;28;20036;-69
2023/05/02 10:38:36;;;;;;;4.53;0.50;;;12.50;99.90;;;;;;5088747;28;20041;-68
2023/05/02 10:41:21;;;;;;;3.30;0.60;;;12.70;99.90;;;;;;5072790;28;20042;-69
2023/05/02 10:43:48;;;;;;;5.75;0.90;;;12.80;99.90;;;;;;5072787;28;20436;-69
2023/05/02 10:46:40;;;;;;;5.38;0.60;;;12.80;99.90;;;;;;5072605;28;20448;-69
2023/05/02 10:49:08;;;;;;;6.63;0.70;;;12.70;99.90;;;;;;5069873;28;20442;-70
2023/05/02 10:51:35;;;;;;;5.57;0.70;;;12.90;99.90;;;;;;5072920;28;20037;-69
2023/05/02 10:54:16;;;;;;;5.30;0.80;;;13.10;99.90;;;;;;5076232;28;20040;-69
2023/05/02 10:57:07;;;;;;;4.13;0.90;;;13.10;99.90;;;;;;5100422;28;20043;-69
2023/05/02 10:59:38;;;;;;;4.30;0.90;;;13.10;99.90;;;;;;5095350;28;20376;-69
2023/05/02 11:02:26;;;;;;;5.75;0.95;;;12.90;99.90;;;;;;5112849;28;20027;-71
2023/05/02 11:05:06;;;;;;;6.38;1.20;;;12.80;99.90;;;;;;5111426;28;20040;-69
2023/05/02 11:07:36;;;;;;;3.97;0.90;;;12.70;99.90;;;;;;5100577;28;20035;-69
2023/05/02 11:10:25;;;;;;;5.60;1.00;;;12.60;99.90;;;;;;5081639;28;20086;-69
2023/05/02 11:12:55;;;;;;;9.20;1.00;;;12.40;99.90;;;;;;5081700;28;20417;-69
2023/05/02 11:15:27;;;;;;;9.32;0.90;;;12.50;99.90;;;;;;5064181;28;20426;-69
2023/05/02 11:18:06;;;;;;;3.25;0.90;;;12.40;99.90;;;;;;5079110;28;20048;-68
2023/05/02 11:20:35;;;;;;;6.35;1.00;;;12.30;99.90;;;;;;5084222;28;20079;-68
2023/05/02 11:23:20;;;;;;;5.88;1.05;;;12.40;99.90;;;;;;5088821;28;20040;-69
2023/05/02 11:25:50;;;;;;;3.63;1.00;;;12.60;99.90;;;;;;5069441;28;20049;-69
2023/05/02 11:28:48;;;;;;;10.07;1.95;;;12.90;99.90;;;;;;5088299;28;20090;-69
2023/05/02 11:31:26;;;;;;;3.17;1.05;;;13.40;99.90;;;;;;5048562;28;20052;-71
2023/05/02 11:33:59;;;;;;;4.68;0.90;;;14.00;99.90;;;;;;5079060;28;20052;-77
2023/05/02 11:36:29;;;;;;;10.43;1.10;;;14.30;99.90;;;;;;5061959;28;20052;-77
2023/05/02 11:38:55;;;;;;;140.35;33.95;;;13.80;99.90;;;;;;5079264;28;20415;-78
2023/05/02 11:41:21;;;;;;;8.38;1.73;;;13.60;99.90;;;;;;5045625;28;20174;-79
2023/05/02 11:43:46;;;;;;;8.45;1.85;;;13.00;99.90;;;;;;5044759;28;20040;-79
2023/05/02 11:46:12;;;;;;;5.68;1.50;;;12.70;99.90;;;;;;5061715;28;20070;-80
2023/05/02 11:48:38;;;;;;;8.23;1.20;;;12.30;99.90;;;;;;5062495;28;20400;-80
2023/05/02 11:51:05;;;;;;;7.28;0.77;;;12.10;99.90;;;;;;5062041;28;20519;-82
2023/05/02 11:53:32;;;;;;;2.50;0.57;;;11.60;99.90;;;;;;5061211;28;20045;-69
2023/05/02 11:55:58;;;;;;;7.28;0.98;;;11.90;99.90;;;;;;5077722;28;20053;-69
2023/05/02 11:58:31;;;;;;;7.55;0.73;;;12.00;99.90;;;;;;5078515;28;20047;-69
2023/05/02 12:00:57;;;;;;;3.28;0.65;;;12.20;99.90;;;;;;5060575;28;20040;-69
2023/05/02 12:03:26;;;;;;;4.57;0.60;;;12.60;99.90;;;;;;5078187;28;20047;-70
2023/05/02 12:05:52;;;;;;;2.53;0.50;;;12.80;99.90;;;;;;5078456;28;20082;-69
2023/05/02 12:08:27;;;;;;;5.20;0.80;;;12.90;99.90;;;;;;5060450;28;20045;-69
2023/05/02 12:10:55;;;;;;;1.27;0.30;;;12.90;99.90;;;;;;5078306;28;20037;-69
2023/05/02 12:13:23;;;;;;;2.22;0.40;;;12.90;99.90;;;;;;5078712;28;20040;-69
2023/05/02 12:15:50;;;;;;;2.70;0.77;;;12.90;99.90;;;;;;5078155;28;20044;-69
2023/05/02 12:18:17;;;;;;;2.78;0.38;;;12.90;99.90;;;;;;5076969;28;20079;-69
2023/05/02 12:20:44;;;;;;;1.98;0.50;;;13.30;99.90;;;;;;5078157;28;20036;-69
2023/05/02 12:23:10;;;;;;;1.00;0.20;;;14.00;99.90;;;;;;5060545;28;20064;-70
2023/05/02 12:25:40;;;;;;;5.05;0.50;;;14.00;99.90;;;;;;5077691;28;20117;-68
2023/05/02 12:28:07;;;;;;;3.60;0.10;;;14.70;99.90;;;;;;5060214;28;20101;-70
2023/05/02 12:30:33;;;;;;;4.03;0.43;;;15.40;99.90;;;;;;5077913;28;20036;-68
2023/05/02 12:33:01;;;;;;;3.50;0.43;;;15.20;99.90;;;;;;5077879;28;20051;-68
2023/05/02 12:35:28;;;;;;;1.67;0.32;;;14.60;99.90;;;;;;5077433;28;20037;-68
2023/05/02 12:38:06;;;;;;;3.70;0.40;;;14.40;99.90;;;;;;5077731;28;20040;-68
2023/05/02 12:40:32;;;;;;;3.13;0.32;;;14.40;99.90;;;;;;5077418;28;20036;-68
2023/05/02 12:43:02;;;;;;;7.82;0.60;;;14.60;99.90;;;;;;5059838;28;20143;-68
2023/05/02 12:45:32;;;;;;;3.88;0.38;;;14.60;99.90;;;;;;5077611;28;20049;-68
2023/05/02 12:48:16;;;;;;;3.00;0.30;;;14.50;99.90;;;;;;5077613;28;20119;-68
2023/05/02 12:50:41;;;;;;;4.55;0.30;;;14.40;99.90;;;;;;5077269;28;20429;-67
2023/05/02 12:53:08;;;;;;;2.35;0.40;;;14.20;99.90;;;;;;5059786;28;20133;-68